Wetterdaten: Woche 08.09.14 - 14.09.14 (KW37)
Datum Zeit Temp. A. Feuchte A. Luftdruck Regen Wind Richtung Taupunkt Windchill Windben
08.09.2014 00:00 15,5 C 83 % 1014,7 hPa 0,0 l/m 0,0 km/h N 12,5 C 15,5 C 0,0 km/h
08.09.2014 01:00 14,8 C 83 % 1014,7 hPa 0,0 l/m 0,0 km/h N 11,9 C 14,8 C 0,0 km/h
08.09.2014 02:00 14,1 C 82 % 1014,8 hPa 0,0 l/m 0,0 km/h N 11,1 C 14,1 C 0,0 km/h
08.09.2014 03:00 13,6 C 82 % 1014,9 hPa 0,0 l/m 0,0 km/h N 10,6 C 13,6 C 0,0 km/h
08.09.2014 04:00 13,3 C 82 % 1014,9 hPa 0,0 l/m 0,0 km/h N 10,2 C 13,3 C 0,0 km/h
08.09.2014 05:00 13,5 C 81 % 1014,9 hPa 0,0 l/m 0,1 km/h N 10,2 C 13,5 C 0,8 km/h
08.09.2014 06:00 13,2 C 80 % 1015,1 hPa 0,0 l/m 0,0 km/h N 9,9 C 13,2 C 0,4 km/h
08.09.2014 07:00 13,8 C 79 % 1015,6 hPa 0,0 l/m 0,0 km/h N 10,1 C 13,8 C 0,4 km/h
08.09.2014 08:00 15,7 C 77 % 1016,1 hPa 0,0 l/m 0,4 km/h N 11,6 C 15,7 C 3,2 km/h
08.09.2014 09:00 17,2 C 76 % 1016,6 hPa 0,0 l/m 1,5 km/h N 12,9 C 17,2 C 6,0 km/h
08.09.2014 10:00 18,1 C 81 % 1016,7 hPa 0,0 l/m 1,8 km/h N 14,7 C 18,1 C 7,6 km/h
08.09.2014 11:00 19,6 C 83 % 1016,6 hPa 0,0 l/m 1,0 km/h N 16,6 C 19,6 C 6,4 km/h
08.09.2014 12:00 21,9 C 77 % 1016,1 hPa 0,0 l/m 1,0 km/h N 17,6 C 21,9 C 6,8 km/h
08.09.2014 13:00 23,4 C 72 % 1015,7 hPa 0,0 l/m 1,3 km/h N 18,1 C 23,4 C 7,6 km/h
08.09.2014 14:00 24,1 C 67 % 1015,5 hPa 0,0 l/m 1,1 km/h N 17,5 C 24,1 C 7,2 km/h
08.09.2014 15:00 23,9 C 65 % 1015,2 hPa 0,0 l/m 1,0 km/h N 16,7 C 23,9 C 8,1 km/h
08.09.2014 16:00 24,0 C 65 % 1014,8 hPa 0,0 l/m 0,8 km/h N 17,0 C 24,0 C 4,4 km/h
08.09.2014 17:00 24,0 C 64 % 1014,6 hPa 0,0 l/m 0,0 km/h N 16,8 C 24,0 C 1,2 km/h
08.09.2014 18:00 23,6 C 67 % 1014,7 hPa 0,0 l/m 0,0 km/h N 17,1 C 23,6 C 0,0 km/h
08.09.2014 19:00 21,9 C 74 % 1014,8 hPa 0,0 l/m 0,0 km/h N 17,0 C 21,9 C 0,0 km/h
08.09.2014 20:00 19,7 C 80 % 1015,2 hPa 0,0 l/m 0,0 km/h N 16,0 C 19,7 C 0,0 km/h
08.09.2014 21:00 18,1 C 82 % 1015,6 hPa 0,0 l/m 0,0 km/h N 15,0 C 18,1 C 0,0 km/h
08.09.2014 22:00 17,0 C 84 % 1015,5 hPa 0,0 l/m 0,0 km/h N 14,3 C 17,0 C 0,0 km/h
08.09.2014 23:00 16,6 C 83 % 1015,4 hPa 0,0 l/m 0,1 km/h N 13,7 C 16,6 C 1,6 km/h
09.09.2014 00:00 16,3 C 82 % 1015,3 hPa 0,0 l/m 0,2 km/h N 13,2 C 16,3 C 2,4 km/h
09.09.2014 01:00 15,9 C 82 % 1015,1 hPa 0,0 l/m 0,1 km/h N 12,8 C 15,9 C 1,6 km/h
09.09.2014 02:00 15,2 C 82 % 1014,9 hPa 0,0 l/m 0,0 km/h N 12,1 C 15,2 C 0,0 km/h
09.09.2014 03:00 14,7 C 82 % 1014,8 hPa 0,0 l/m 0,1 km/h N 11,6 C 14,7 C 0,8 km/h
09.09.2014 04:00 14,1 C 82 % 1014,6 hPa 0,0 l/m 0,0 km/h N 11,0 C 14,1 C 0,0 km/h
09.09.2014 05:00 13,9 C 81 % 1014,6 hPa 0,0 l/m 0,0 km/h N 10,7 C 13,9 C 1,6 km/h
09.09.2014 06:00 13,6 C 81 % 1014,9 hPa 0,0 l/m 0,0 km/h N 10,4 C 13,6 C 0,8 km/h
09.09.2014 07:00 13,9 C 79 % 1015,1 hPa 0,3 l/m 0,0 km/h N 10,3 C 13,9 C 0,0 km/h
09.09.2014 08:00 15,7 C 77 % 1015,2 hPa 0,0 l/m 0,2 km/h N 11,7 C 15,7 C 1,6 km/h
09.09.2014 09:00 18,1 C 78 % 1015,2 hPa 0,0 l/m 0,4 km/h N 14,1 C 18,1 C 4,4 km/h
09.09.2014 10:00 21,5 C 80 % 1015,2 hPa 0,0 l/m 0,5 km/h N 17,8 C 21,5 C 5,2 km/h
09.09.2014 11:00 23,7 C 69 % 1015,2 hPa 0,0 l/m 5,8 km/h N 17,6 C 23,6 C 18,1 km/h
09.09.2014 12:00 24,0 C 67 % 1015,1 hPa 0,0 l/m 5,1 km/h N 17,3 C 23,9 C 17,7 km/h
09.09.2014 13:00 23,4 C 68 % 1014,9 hPa 0,0 l/m 5,7 km/h N 17,0 C 23,4 C 18,9 km/h
09.09.2014 14:00 23,8 C 66 % 1014,5 hPa 0,0 l/m 6,1 km/h N 16,9 C 23,7 C 18,9 km/h
09.09.2014 15:00 24,1 C 65 % 1014,1 hPa 0,0 l/m 4,5 km/h N 17,0 C 24,1 C 16,5 km/h
09.09.2014 16:00 24,0 C 65 % 1014,1 hPa 0,0 l/m 2,7 km/h N 17,1 C 24,0 C 12,1 km/h
09.09.2014 17:00 23,8 C 66 % 1013,8 hPa 0,0 l/m 3,0 km/h N 17,0 C 23,8 C 12,9 km/h
09.09.2014 18:00 23,4 C 67 % 1013,8 hPa 0,0 l/m 3,3 km/h N 16,7 C 23,4 C 11,7 km/h
09.09.2014 19:00 21,8 C 74 % 1014,0 hPa 0,0 l/m 0,8 km/h N 17,0 C 21,8 C 4,8 km/h
09.09.2014 20:00 20,0 C 76 % 1014,3 hPa 0,0 l/m 0,3 km/h N 15,7 C 20,0 C 3,2 km/h
09.09.2014 21:00 19,0 C 78 % 1014,4 hPa 0,0 l/m 0,2 km/h N 15,0 C 19,0 C 1,6 km/h
09.09.2014 22:00 18,4 C 81 % 1014,8 hPa 0,0 l/m 0,4 km/h N 15,1 C 18,4 C 2,0 km/h
09.09.2014 23:00 18,4 C 82 % 1015,0 hPa 0,0 l/m 0,0 km/h N 15,2 C 18,4 C 0,8 km/h
10.09.2014 00:00 17,8 C 83 % 1014,9 hPa 0,0 l/m 0,0 km/h N 14,9 C 17,8 C 0,0 km/h
10.09.2014 01:00 17,3 C 84 % 1014,8 hPa 0,0 l/m 0,0 km/h N 14,5 C 17,3 C 0,0 km/h
10.09.2014 02:00 17,1 C 84 % 1014,7 hPa 0,0 l/m 0,3 km/h N 14,3 C 17,1 C 1,6 km/h
10.09.2014 03:00 17,4 C 84 % 1014,6 hPa 0,0 l/m 0,6 km/h N 14,6 C 17,4 C 5,2 km/h
10.09.2014 04:00 17,4 C 81 % 1014,4 hPa 0,0 l/m 1,1 km/h N 14,1 C 17,4 C 5,6 km/h
10.09.2014 05:00 17,0 C 81 % 1014,4 hPa 0,0 l/m 1,6 km/h N 13,7 C 17,0 C 7,6 km/h
10.09.2014 06:00 16,0 C 82 % 1014,5 hPa 0,0 l/m 1,3 km/h N 12,9 C 16,0 C 6,8 km/h
10.09.2014 07:00 15,4 C 83 % 1014,8 hPa 0,0 l/m 1,4 km/h N 12,6 C 15,4 C 7,2 km/h
10.09.2014 08:00 16,3 C 81 % 1014,9 hPa 0,0 l/m 3,9 km/h N 13,1 C 16,3 C 12,5 km/h
10.09.2014 09:00 17,3 C 79 % 1015,0 hPa 0,0 l/m 4,6 km/h N 13,7 C 17,3 C 14,5 km/h
10.09.2014 10:00 18,3 C 76 % 1015,0 hPa 0,0 l/m 3,0 km/h N 13,9 C 18,3 C 10,9 km/h
10.09.2014 11:00 19,3 C 72 % 1014,8 hPa 0,0 l/m 2,5 km/h N 14,1 C 19,3 C 10,1 km/h
10.09.2014 12:00 19,8 C 71 % 1014,5 hPa 0,0 l/m 4,0 km/h N 14,3 C 19,8 C 12,1 km/h
10.09.2014 13:00 20,7 C 67 % 1013,8 hPa 0,0 l/m 3,9 km/h N 14,3 C 20,7 C 15,3 km/h
10.09.2014 14:00 20,8 C 64 % 1013,4 hPa 0,0 l/m 2,8 km/h N 13,8 C 20,8 C 12,5 km/h
10.09.2014 15:00 20,8 C 64 % 1013,2 hPa 0,0 l/m 3,7 km/h N 13,7 C 20,8 C 13,3 km/h
10.09.2014 16:00 20,5 C 63 % 1012,9 hPa 0,0 l/m 2,6 km/h N 13,1 C 20,5 C 10,5 km/h
10.09.2014 17:00 20,3 C 62 % 1012,7 hPa 0,0 l/m 1,9 km/h N 12,9 C 20,3 C 9,7 km/h
10.09.2014 18:00 20,0 C 63 % 1012,7 hPa 0,0 l/m 2,0 km/h N 12,7 C 20,0 C 8,9 km/h
10.09.2014 19:00 18,8 C 69 % 1012,7 hPa 0,0 l/m 0,0 km/h N 12,9 C 18,8 C 1,2 km/h
10.09.2014 20:00 17,0 C 75 % 1013,1 hPa 0,0 l/m 0,0 km/h N 12,5 C 17,0 C 0,0 km/h
10.09.2014 21:00 16,0 C 79 % 1013,2 hPa 0,0 l/m 0,0 km/h N 12,4 C 16,0 C 0,0 km/h
10.09.2014 22:00 15,0 C 81 % 1013,1 hPa 0,0 l/m 0,0 km/h N 11,8 C 15,0 C 0,0 km/h
10.09.2014 23:00 14,2 C 82 % 1013,1 hPa 0,0 l/m 0,0 km/h N 11,2 C 14,2 C 0,0 km/h
11.09.2014 00:00 13,3 C 84 % 1013,2 hPa 0,0 l/m 0,0 km/h N 10,6 C 13,3 C 0,0 km/h
11.09.2014 01:00 13,1 C 84 % 1013,0 hPa 0,0 l/m 0,0 km/h N 10,4 C 13,1 C 0,0 km/h
11.09.2014 02:00 13,0 C 84 % 1012,8 hPa 0,0 l/m 0,0 km/h N 10,3 C 13,0 C 0,0 km/h
11.09.2014 03:00 13,3 C 84 % 1012,7 hPa 0,0 l/m 0,1 km/h N 10,6 C 13,3 C 2,4 km/h
11.09.2014 04:00 14,1 C 83 % 1012,4 hPa 0,0 l/m 1,3 km/h N 11,3 C 14,1 C 6,0 km/h
11.09.2014 05:00 14,7 C 81 % 1012,3 hPa 0,0 l/m 0,8 km/h N 11,4 C 14,7 C 5,6 km/h
11.09.2014 06:00 14,6 C 81 % 1012,0 hPa 0,0 l/m 0,6 km/h N 11,4 C 14,6 C 4,8 km/h
11.09.2014 07:00 14,4 C 82 % 1012,2 hPa 0,0 l/m 0,9 km/h N 11,4 C 14,4 C 5,2 km/h
11.09.2014 08:00 14,9 C 80 % 1012,3 hPa 0,0 l/m 3,0 km/h N 11,5 C 14,9 C 9,3 km/h
11.09.2014 09:00 14,7 C 83 % 1012,5 hPa 0,8 l/m 1,8 km/h N 11,8 C 14,7 C 8,9 km/h
11.09.2014 10:00 14,4 C 84 % 1012,8 hPa 1,6 l/m 1,3 km/h N 11,7 C 14,4 C 7,2 km/h
11.09.2014 11:00 14,3 C 84 % 1012,8 hPa 0,3 l/m 2,5 km/h N 11,6 C 14,3 C 9,7 km/h
11.09.2014 12:00 14,3 C 83 % 1012,8 hPa 2,1 l/m 3,0 km/h N 11,4 C 14,3 C 10,1 km/h
11.09.2014 13:00 14,6 C 82 % 1012,6 hPa 1,0 l/m 3,0 km/h N 11,6 C 14,6 C 11,6 km/h
11.09.2014 14:00 14,8 C 82 % 1012,3 hPa 0,5 l/m 3,2 km/h N 11,7 C 14,8 C 10,4 km/h
11.09.2014 15:00 14,7 C 82 % 1012,2 hPa 0,8 l/m 2,8 km/h N 11,6 C 14,7 C 10,5 km/h
11.09.2014 16:00 14,4 C 82 % 1011,8 hPa 2,9 l/m 3,0 km/h N 11,4 C 14,4 C 11,3 km/h
11.09.2014 17:00 14,1 C 82 % 1011,7 hPa 2,6 l/m 4,0 km/h N 11,0 C 14,1 C 12,5 km/h
11.09.2014 18:00 13,6 C 82 % 1011,5 hPa 2,9 l/m 4,9 km/h N 10,6 C 13,6 C 16,9 km/h
11.09.2014 19:00 13,4 C 82 % 1011,5 hPa 2,6 l/m 6,0 km/h N 10,4 C 13,4 C 17,3 km/h
11.09.2014 20:00 13,4 C 82 % 1011,2 hPa 0,8 l/m 3,6 km/h N 10,4 C 13,4 C 15,3 km/h
11.09.2014 21:00 13,5 C 83 % 1011,0 hPa 0,3 l/m 5,9 km/h N 10,6 C 13,5 C 18,5 km/h
11.09.2014 22:00 13,5 C 83 % 1010,6 hPa 0,3 l/m 5,9 km/h N 10,6 C 13,4 C 19,7 km/h
11.09.2014 23:00 13,6 C 84 % 1010,5 hPa 0,3 l/m 6,5 km/h N 10,9 C 13,1 C 18,5 km/h
12.09.2014 00:00 13,6 C 85 % 1010,4 hPa 0,5 l/m 6,6 km/h N 11,0 C 13,3 C 19,7 km/h
12.09.2014 01:00 13,6 C 85 % 1009,8 hPa 0,3 l/m 5,5 km/h N 11,0 C 13,6 C 20,9 km/h
12.09.2014 02:00 13,6 C 85 % 1009,4 hPa 0,5 l/m 7,1 km/h N 11,1 C 13,2 C 25,7 km/h
12.09.2014 03:00 13,5 C 85 % 1009,3 hPa 1,3 l/m 4,7 km/h N 11,1 C 13,5 C 20,9 km/h
12.09.2014 04:00 13,2 C 85 % 1008,8 hPa 1,3 l/m 5,4 km/h N 10,7 C 12,9 C 21,3 km/h
12.09.2014 05:00 13,2 C 85 % 1008,3 hPa 0,5 l/m 8,4 km/h N 10,7 C 12,0 C 28,2 km/h
12.09.2014 06:00 13,3 C 85 % 1008,8 hPa 0,0 l/m 5,8 km/h N 10,8 C 13,2 C 25,0 km/h
12.09.2014 07:00 13,6 C 82 % 1009,4 hPa 0,0 l/m 5,0 km/h N 10,5 C 13,6 C 26,2 km/h
12.09.2014 08:00 14,0 C 80 % 1009,8 hPa 0,0 l/m 5,1 km/h N 10,6 C 13,9 C 25,0 km/h
12.09.2014 09:00 14,4 C 79 % 1010,3 hPa 0,0 l/m 4,1 km/h N 10,8 C 14,4 C 22,5 km/h
12.09.2014 10:00 14,9 C 77 % 1011,1 hPa 0,0 l/m 3,5 km/h N 10,8 C 14,9 C 19,3 km/h
12.09.2014 11:00 15,1 C 76 % 1012,2 hPa 0,0 l/m 2,3 km/h N 10,9 C 15,1 C 14,5 km/h
12.09.2014 12:00 15,5 C 77 % 1013,1 hPa 0,0 l/m 0,8 km/h N 11,4 C 15,5 C 7,3 km/h
12.09.2014 13:00 16,1 C 76 % 1013,7 hPa 0,0 l/m 0,4 km/h N 11,9 C 16,1 C 6,8 km/h
12.09.2014 14:00 16,7 C 71 % 1013,9 hPa 0,3 l/m 5,0 km/h N 11,5 C 16,7 C 17,3 km/h
12.09.2014 15:00 17,7 C 68 % 1014,0 hPa 0,0 l/m 3,4 km/h N 11,6 C 17,7 C 16,9 km/h
12.09.2014 16:00 17,8 C 68 % 1014,3 hPa 0,0 l/m 4,6 km/h N 11,7 C 17,8 C 16,9 km/h
12.09.2014 17:00 17,5 C 68 % 1014,8 hPa 0,0 l/m 2,1 km/h N 11,5 C 17,5 C 11,3 km/h
12.09.2014 18:00 17,0 C 70 % 1015,0 hPa 0,0 l/m 1,2 km/h N 11,5 C 17,0 C 8,5 km/h
12.09.2014 19:00 16,0 C 75 % 1015,3 hPa 0,0 l/m 0,1 km/h N 11,5 C 16,0 C 1,2 km/h
12.09.2014 20:00 14,3 C 80 % 1015,9 hPa 0,0 l/m 0,0 km/h N 10,9 C 14,3 C 0,0 km/h
12.09.2014 21:00 13,5 C 83 % 1016,1 hPa 0,0 l/m 0,0 km/h N 10,7 C 13,5 C 0,4 km/h
12.09.2014 22:00 13,4 C 84 % 1016,4 hPa 0,0 l/m 0,0 km/h N 10,8 C 13,4 C 0,0 km/h
12.09.2014 23:00 13,9 C 84 % 1016,3 hPa 0,0 l/m 1,5 km/h N 11,2 C 13,9 C 6,4 km/h
13.09.2014 00:00 14,6 C 78 % 1016,3 hPa 0,0 l/m 2,9 km/h N 10,9 C 14,6 C 10,1 km/h
13.09.2014 01:00 14,6 C 77 % 1016,4 hPa 0,0 l/m 1,5 km/h N 10,6 C 14,6 C 8,8 km/h
13.09.2014 02:00 14,6 C 77 % 1015,5 hPa 0,0 l/m 6,6 km/h N 10,5 C 14,1 C 19,7 km/h
13.09.2014 03:00 14,3 C 80 % 1014,9 hPa 0,3 l/m 5,9 km/h N 10,8 C 14,1 C 18,9 km/h
13.09.2014 04:00 13,6 C 84 % 1014,3 hPa 1,0 l/m 7,3 km/h N 10,9 C 13,0 C 20,1 km/h
13.09.2014 05:00 13,3 C 83 % 1013,8 hPa 6,5 l/m 3,8 km/h N 10,5 C 13,3 C 13,3 km/h
13.09.2014 06:00 13,7 C 81 % 1014,1 hPa 9,6 l/m 2,8 km/h N 10,6 C 13,7 C 10,1 km/h
13.09.2014 07:00 13,6 C 80 % 1014,1 hPa 5,2 l/m 3,2 km/h N 10,2 C 13,6 C 12,1 km/h
13.09.2014 08:00 13,9 C 79 % 1014,3 hPa 2,1 l/m 1,2 km/h N 10,3 C 13,9 C 5,6 km/h
13.09.2014 09:00 13,8 C 79 % 1014,7 hPa 1,3 l/m 0,3 km/h N 10,2 C 13,8 C 3,6 km/h
13.09.2014 10:00 13,6 C 79 % 1015,2 hPa 1,3 l/m 0,3 km/h N 10,0 C 13,6 C 4,4 km/h
13.09.2014 11:00 13,8 C 78 % 1015,5 hPa 1,0 l/m 0,2 km/h N 10,0 C 13,8 C 3,6 km/h
13.09.2014 12:00 14,1 C 78 % 1015,6 hPa 0,3 l/m 0,7 km/h N 10,3 C 14,1 C 5,2 km/h
13.09.2014 13:00 14,4 C 77 % 1015,8 hPa 0,0 l/m 0,7 km/h N 10,4 C 14,4 C 4,8 km/h
13.09.2014 14:00 14,7 C 78 % 1016,2 hPa 0,0 l/m 3,0 km/h N 10,8 C 14,7 C 8,9 km/h
13.09.2014 15:00 14,9 C 81 % 1016,3 hPa 0,3 l/m 3,0 km/h N 11,7 C 14,9 C 11,3 km/h
13.09.2014 16:00 15,0 C 82 % 1016,8 hPa 0,8 l/m 2,0 km/h N 11,9 C 15,0 C 8,9 km/h
13.09.2014 17:00 15,6 C 83 % 1016,7 hPa 0,0 l/m 3,6 km/h N 12,7 C 15,6 C 12,5 km/h
13.09.2014 18:00 15,3 C 85 % 1016,6 hPa 0,0 l/m 4,1 km/h N 12,7 C 15,3 C 14,5 km/h
13.09.2014 19:00 14,6 C 85 % 1016,9 hPa 0,0 l/m 3,1 km/h N 12,1 C 14,6 C 10,5 km/h
13.09.2014 20:00 14,4 C 85 % 1017,5 hPa 0,0 l/m 3,9 km/h N 11,9 C 14,4 C 14,1 km/h
13.09.2014 21:00 14,4 C 85 % 1017,3 hPa 0,3 l/m 2,1 km/h N 11,8 C 14,4 C 9,3 km/h
13.09.2014 22:00 14,3 C 85 % 1017,2 hPa 0,0 l/m 2,4 km/h N 11,8 C 14,3 C 11,7 km/h
13.09.2014 23:00 14,3 C 84 % 1016,7 hPa 0,3 l/m 1,1 km/h N 11,7 C 14,3 C 8,9 km/h
14.09.2014 00:00 14,3 C 84 % 1016,9 hPa 3,4 l/m 0,9 km/h N 11,5 C 14,3 C 8,1 km/h
14.09.2014 01:00 14,0 C 83 % 1016,7 hPa 1,8 l/m 2,3 km/h N 11,1 C 14,0 C 8,8 km/h
14.09.2014 02:00 14,1 C 81 % 1016,0 hPa 0,0 l/m 1,9 km/h N 11,0 C 14,1 C 8,1 km/h
14.09.2014 03:00 14,2 C 81 % 1016,0 hPa 0,0 l/m 1,2 km/h N 11,0 C 14,2 C 8,0 km/h
14.09.2014 04:00 14,3 C 81 % 1015,8 hPa 0,0 l/m 0,6 km/h N 11,1 C 14,3 C 5,2 km/h
14.09.2014 05:00 14,3 C 82 % 1015,5 hPa 0,0 l/m 0,2 km/h N 11,2 C 14,3 C 2,4 km/h
14.09.2014 06:00 14,1 C 81 % 1015,5 hPa 0,0 l/m 0,0 km/h N 11,0 C 14,1 C 0,4 km/h
14.09.2014 07:00 14,3 C 81 % 1015,5 hPa 0,0 l/m 0,0 km/h N 11,0 C 14,3 C 0,0 km/h
14.09.2014 08:00 14,9 C 80 % 1015,6 hPa 0,0 l/m 0,2 km/h N 11,5 C 14,9 C 3,2 km/h
14.09.2014 09:00 15,8 C 80 % 1015,8 hPa 0,0 l/m 0,2 km/h N 12,4 C 15,8 C 2,4 km/h
14.09.2014 10:00 17,4 C 82 % 1015,5 hPa 0,0 l/m 0,9 km/h N 14,3 C 17,4 C 6,0 km/h
14.09.2014 11:00 18,8 C 79 % 1015,5 hPa 0,0 l/m 2,3 km/h N 15,0 C 18,8 C 8,8 km/h
14.09.2014 12:00 19,1 C 79 % 1015,6 hPa 0,0 l/m 2,8 km/h N 15,3 C 19,1 C 10,1 km/h
14.09.2014 13:00 19,5 C 77 % 1015,6 hPa 0,0 l/m 2,7 km/h N 15,3 C 19,5 C 9,7 km/h
14.09.2014 14:00 18,5 C 82 % 1015,6 hPa 1,8 l/m 1,0 km/h N 15,4 C 18,5 C 5,2 km/h
14.09.2014 15:00 18,7 C 81 % 1015,2 hPa 0,0 l/m 2,4 km/h N 15,4 C 18,7 C 9,7 km/h
14.09.2014 16:00 19,3 C 78 % 1015,2 hPa 0,0 l/m 1,3 km/h N 15,3 C 19,3 C 9,6 km/h
14.09.2014 17:00 18,9 C 80 % 1015,3 hPa 0,0 l/m 0,6 km/h N 15,3 C 18,9 C 5,2 km/h
14.09.2014 18:00 18,5 C 81 % 1015,4 hPa 0,0 l/m 0,6 km/h N 15,2 C 18,5 C 4,8 km/h
14.09.2014 19:00 18,0 C 83 % 1015,7 hPa 0,0 l/m 0,3 km/h N 15,0 C 18,0 C 3,2 km/h
14.09.2014 20:00 17,5 C 84 % 1016,1 hPa 0,0 l/m 0,6 km/h N 14,7 C 17,5 C 4,4 km/h
14.09.2014 21:00 17,1 C 84 % 1015,9 hPa 0,0 l/m 0,6 km/h N 14,3 C 17,1 C 3,6 km/h
14.09.2014 22:00 16,9 C 83 % 1015,7 hPa 0,5 l/m 1,5 km/h N 14,1 C 16,9 C 7,6 km/h
14.09.2014 23:00 16,4 C 83 % 1015,8 hPa 0,0 l/m 2,6 km/h N 13,5 C 16,4 C 9,6 km/h
Min-Datum _ 11.09.14 10.09.14 12.09.14 - 08.09.14 - 08.09.14 12.09.14 08.09.14
_ Min-Zeit 01:45 17:45 05:30 - 00:00 - 06:15 05:30 00:00
Minimum _ 12,9 C 60 % 1008,2 hPa - 0,0 km/h - 9,8 C 11,2 C 0,0 km/h
Max-Datum _ 09.09.14 11.09.14 13.09.14 13.09.14 12.09.14 - 09.09.14 09.09.14 12.09.14
_ Max-Zeit 12:15 23:45 20:45 06:00 05:30 - 10:30 15:30 08:00
Maximum _ 24,3 C 85 % 1017,7 hPa 9,6 l/m 9,9 km/h
N
- 18,3 C 24,3 C 35,4 km/h
N
Durchschnitt _ 16,5 C 79 % 1014,3 hPa #62,1 l/m 2,0 km/h N 12,7 C 16,4 C 8,2 km/h